createdAt,value
2018-03-26T00:01:29.784Z,48.00
2018-03-26T00:03:57.265Z,54.00
2018-03-26T00:06:25.507Z,54.38
2018-03-26T00:08:52.979Z,45.80
2018-03-26T00:11:20.492Z,48.47
2018-03-26T00:13:47.953Z,52.28
2018-03-26T00:16:15.466Z,54.85
2018-03-26T00:18:42.946Z,51.00
2018-03-26T00:21:11.183Z,46.92
2018-03-26T00:23:38.674Z,47.13
2018-03-26T00:26:06.906Z,48.13
2018-03-26T00:28:34.391Z,47.92
2018-03-26T00:31:01.956Z,51.22
2018-03-26T00:33:29.517Z,45.78
2018-03-26T00:35:57.733Z,49.75
2018-03-26T00:38:25.218Z,49.25
2018-03-26T00:40:52.746Z,47.92
2018-03-26T00:43:20.211Z,48.83
2018-03-26T00:45:47.668Z,51.00
2018-03-26T00:48:15.143Z,45.95
2018-03-26T00:50:42.729Z,50.40
2018-03-26T00:53:10.192Z,48.47
2018-03-26T00:55:38.429Z,45.17
2018-03-26T00:58:05.917Z,49.58
2018-03-26T01:00:34.206Z,47.83
2018-03-26T01:03:02.528Z,51.67
2018-03-26T01:05:30.000Z,49.80
2018-03-26T01:07:57.478Z,51.15
2018-03-26T01:10:24.988Z,48.00
2018-03-26T01:12:52.449Z,48.13
2018-03-26T01:15:19.937Z,47.03
2018-03-26T01:17:47.425Z,48.42
2018-03-26T01:20:15.684Z,51.35
2018-03-26T01:22:43.251Z,46.10
2018-03-26T01:25:10.708Z,43.70
2018-03-26T01:27:38.936Z,45.83
2018-03-26T01:30:06.448Z,46.92
2018-03-26T01:32:34.688Z,45.50
2018-03-26T01:35:02.146Z,49.67
2018-03-26T01:37:29.645Z,54.25
2018-03-26T01:39:57.885Z,48.20
2018-03-26T01:42:25.370Z,46.53
2018-03-26T01:44:53.607Z,49.88
2018-03-26T01:47:21.068Z,53.13
2018-03-26T01:49:48.594Z,47.38
2018-03-26T01:52:16.084Z,48.67
2018-03-26T01:54:43.550Z,46.13
2018-03-26T01:57:11.010Z,45.10
2018-03-26T01:59:38.556Z,44.85
2018-03-26T02:02:06.024Z,49.35
2018-03-26T02:04:33.519Z,46.80
2018-03-26T02:07:01.048Z,47.62
2018-03-26T02:09:28.622Z,47.88
2018-03-26T02:11:56.890Z,47.20
2018-03-26T02:14:25.165Z,49.47
2018-03-26T02:16:53.408Z,42.70
2018-03-26T02:19:20.882Z,42.75
2018-03-26T02:21:48.346Z,42.88
2018-03-26T02:24:15.916Z,41.58
2018-03-26T02:26:44.161Z,50.42
2018-03-26T02:29:11.673Z,49.45
2018-03-26T02:31:39.293Z,40.10
2018-03-26T02:36:40.593Z,42.28
2018-03-26T02:39:08.110Z,45.30
2018-03-26T02:41:35.619Z,49.80
2018-03-26T02:44:03.100Z,43.65
2018-03-26T02:46:30.587Z,46.00
2018-03-26T02:48:58.133Z,42.28
2018-03-26T02:51:25.606Z,42.15
2018-03-26T02:53:53.092Z,41.55
2018-03-26T02:56:20.604Z,48.65
2018-03-26T02:58:48.107Z,48.15
2018-03-26T03:01:16.333Z,48.95
2018-03-26T03:03:43.859Z,40.65
2018-03-26T03:06:11.340Z,42.55
2018-03-26T03:08:38.796Z,40.75
2018-03-26T03:11:06.328Z,50.42
2018-03-26T03:13:33.808Z,44.70
2018-03-26T03:16:01.293Z,41.65
2018-03-26T03:18:28.803Z,49.40
2018-03-26T03:20:56.304Z,44.53
2018-03-26T03:23:24.591Z,48.42
2018-03-26T03:25:52.129Z,44.95
2018-03-26T03:28:19.612Z,45.03
2018-03-26T03:30:47.863Z,42.78
2018-03-26T03:33:15.342Z,45.88
2018-03-26T03:35:43.614Z,47.97
2018-03-26T03:38:11.068Z,46.33
2018-03-26T03:40:39.551Z,49.25
2018-03-26T03:43:07.094Z,44.78
2018-03-26T03:45:34.572Z,44.58
2018-03-26T03:48:02.794Z,47.30
2018-03-26T03:50:30.287Z,45.28
2018-03-26T03:52:57.857Z,46.45
2018-03-26T03:55:25.514Z,40.15
2018-03-26T03:57:53.764Z,52.15
2018-03-26T04:00:21.318Z,46.72
2018-03-26T04:02:48.791Z,46.78
2018-03-26T04:05:16.284Z,47.78
2018-03-26T04:07:44.508Z,45.97
2018-03-26T04:10:12.011Z,41.72
2018-03-26T04:12:40.286Z,52.33
2018-03-26T04:15:08.501Z,43.05
2018-03-26T04:17:35.971Z,49.53
2018-03-26T04:20:03.428Z,41.40
2018-03-26T04:22:30.897Z,40.78
2018-03-26T04:24:58.470Z,49.85
2018-03-26T04:27:25.949Z,49.10
2018-03-26T04:29:54.176Z,44.38
2018-03-26T04:32:21.669Z,46.63
2018-03-26T04:34:49.904Z,51.63
2018-03-26T04:37:17.492Z,42.33
2018-03-26T04:39:45.053Z,47.13
2018-03-26T04:42:12.532Z,43.47
2018-03-26T04:44:40.837Z,50.05
2018-03-26T04:47:08.336Z,41.47
2018-03-26T04:49:35.892Z,45.40
2018-03-26T04:52:03.370Z,49.70
2018-03-26T04:54:31.616Z,49.25
2018-03-26T04:56:59.085Z,46.75
2018-03-26T04:59:26.682Z,51.30
2018-03-26T05:01:54.145Z,44.33
2018-03-26T05:04:21.679Z,42.92
2018-03-26T05:06:49.955Z,47.20
2018-03-26T05:09:18.214Z,47.58
2018-03-26T05:11:45.672Z,47.40
2018-03-26T05:14:13.166Z,42.53
2018-03-26T05:16:40.630Z,46.55
2018-03-26T05:19:08.093Z,52.30
2018-03-26T05:21:35.570Z,50.90
2018-03-26T05:24:03.049Z,48.87
2018-03-26T05:26:30.520Z,43.35
2018-03-26T05:28:58.004Z,48.90
2018-03-26T05:31:25.534Z,55.00
2018-03-26T05:33:53.770Z,50.08
2018-03-26T05:36:21.228Z,49.83
2018-03-26T05:38:48.693Z,54.40
2018-03-26T05:41:16.269Z,50.22
2018-03-26T05:43:43.852Z,50.42
2018-03-26T05:46:12.113Z,50.95
2018-03-26T05:48:39.657Z,47.22
2018-03-26T05:51:07.235Z,51.95
2018-03-26T05:53:35.479Z,48.15
2018-03-26T05:56:02.944Z,47.88
2018-03-26T05:58:30.527Z,47.72
2018-03-26T06:00:57.995Z,52.58
2018-03-26T06:03:26.220Z,53.72
2018-03-26T06:05:53.706Z,54.65
2018-03-26T06:08:21.167Z,50.12
2018-03-26T06:10:48.621Z,58.87
2018-03-26T06:13:16.189Z,50.58
2018-03-26T06:15:43.651Z,47.75
2018-03-26T06:18:11.906Z,49.28
2018-03-26T06:20:39.393Z,47.45
2018-03-26T06:23:07.646Z,49.35
2018-03-26T06:25:35.120Z,52.75
2018-03-26T06:28:03.344Z,52.83
2018-03-26T06:30:30.819Z,52.42
2018-03-26T06:32:58.310Z,50.90
2018-03-26T06:35:26.557Z,51.67
2018-03-26T06:41:02.606Z,49.20
2018-03-26T06:43:30.070Z,58.72
2018-03-26T06:45:57.550Z,52.33
2018-03-26T06:48:25.132Z,47.35
2018-03-26T06:50:53.395Z,46.88
2018-03-26T06:53:20.860Z,57.78
2018-03-26T06:55:49.084Z,48.17
2018-03-26T06:58:16.540Z,53.20
2018-03-26T07:00:44.025Z,47.83
2018-03-26T07:03:11.502Z,54.05
2018-03-26T07:05:39.102Z,49.00
2018-03-26T07:08:06.768Z,53.50
2018-03-26T07:10:34.247Z,50.85
2018-03-26T07:13:01.712Z,46.37
2018-03-26T07:15:29.236Z,50.63
2018-03-26T07:17:56.714Z,49.83
2018-03-26T07:20:24.215Z,52.78
2018-03-26T07:22:52.456Z,48.80
2018-03-26T07:25:19.927Z,50.63
2018-03-26T07:27:47.422Z,48.03
2018-03-26T07:30:14.913Z,46.88
2018-03-26T07:32:42.487Z,53.53
2018-03-26T07:35:09.970Z,47.75
2018-03-26T07:37:38.223Z,42.28
2018-03-26T07:40:05.701Z,51.63
2018-03-26T07:42:33.958Z,43.05
2018-03-26T07:45:01.442Z,47.42
2018-03-26T07:47:29.710Z,48.63
2018-03-26T07:49:57.268Z,46.35
2018-03-26T07:52:24.737Z,47.25
2018-03-26T07:54:52.985Z,48.95
2018-03-26T07:57:20.453Z,50.33
2018-03-26T07:59:48.715Z,44.05
2018-03-26T08:02:16.412Z,47.28
2018-03-26T08:04:43.883Z,49.00
2018-03-26T08:07:11.429Z,55.90
2018-03-26T08:09:39.788Z,53.67
2018-03-26T08:12:08.019Z,60.88
2018-03-26T08:14:35.498Z,44.40
2018-03-26T08:17:03.059Z,50.63
2018-03-26T08:19:31.618Z,50.83
2018-03-26T08:21:59.088Z,52.45
2018-03-26T08:24:26.674Z,53.10
2018-03-26T08:26:54.150Z,58.28
2018-03-26T08:29:22.409Z,54.60
2018-03-26T08:31:49.893Z,58.33
2018-03-26T08:34:23.189Z,50.42
2018-03-26T08:36:50.665Z,62.92
2018-03-26T08:39:18.124Z,53.47
2018-03-26T08:41:45.605Z,60.50
2018-03-26T08:44:13.093Z,65.70
2018-03-26T08:46:41.461Z,61.40
2018-03-26T08:49:09.020Z,58.87
2018-03-26T08:51:36.496Z,60.85
2018-03-26T08:54:04.713Z,72.87
2018-03-26T08:56:32.179Z,66.05
2018-03-26T08:58:59.640Z,63.35
2018-03-26T09:01:27.146Z,62.58
2018-03-26T09:03:55.395Z,64.20
2018-03-26T09:06:22.853Z,67.25
2018-03-26T09:08:50.359Z,60.88
2018-03-26T09:11:17.825Z,67.00
2018-03-26T09:13:45.313Z,74.00
2018-03-26T09:16:12.786Z,75.35
2018-03-26T09:18:41.071Z,67.03
2018-03-26T09:21:08.531Z,70.12
2018-03-26T09:23:36.787Z,68.50
2018-03-26T09:26:04.472Z,72.30
2018-03-26T09:28:32.045Z,76.57
2018-03-26T09:30:59.513Z,69.53
2018-03-26T09:33:26.987Z,72.35
2018-03-26T09:35:54.458Z,71.37
2018-03-26T09:38:21.943Z,67.28
2018-03-26T09:40:50.210Z,75.65
2018-03-26T09:43:17.774Z,66.35
2018-03-26T09:45:45.235Z,76.00
2018-03-26T09:48:13.511Z,65.50
2018-03-26T09:50:41.065Z,73.40
2018-03-26T09:53:08.534Z,72.40
2018-03-26T09:55:36.779Z,76.60
2018-03-26T09:58:04.253Z,73.35
2018-03-26T10:00:52.439Z,71.00
2018-03-26T10:03:19.909Z,82.72
2018-03-26T10:05:47.398Z,73.10
2018-03-26T10:08:14.982Z,78.18
2018-03-26T10:10:43.261Z,78.53
2018-03-26T10:13:11.673Z,73.15
2018-03-26T10:15:39.147Z,91.35
2018-03-26T10:18:06.618Z,81.70
2018-03-26T10:20:34.113Z,90.10
2018-03-26T10:23:02.386Z,83.32
2018-03-26T10:25:30.634Z,83.87
2018-03-26T10:27:58.878Z,86.75
2018-03-26T10:30:26.357Z,80.38
2018-03-26T10:32:53.838Z,80.40
2018-03-26T10:35:21.402Z,81.87
2018-03-26T10:37:49.673Z,83.15
2018-03-26T10:40:17.232Z,80.05
2018-03-26T10:42:44.713Z,85.05
2018-03-26T10:45:12.248Z,72.80
2018-03-26T10:47:40.516Z,79.78
2018-03-26T10:50:08.035Z,85.30
2018-03-26T10:52:35.506Z,87.12
2018-03-26T10:55:07.908Z,82.65
2018-03-26T10:57:36.148Z,80.82
2018-03-26T11:00:03.613Z,77.07
2018-03-26T11:02:31.095Z,75.85
2018-03-26T11:04:59.333Z,87.28
2018-03-26T11:07:26.929Z,75.62
2018-03-26T11:09:54.393Z,87.65
2018-03-26T11:12:21.895Z,103.38
2018-03-26T11:14:49.364Z,87.90
2018-03-26T11:17:16.902Z,84.82
2018-03-26T11:19:44.414Z,78.70
2018-03-26T11:22:11.917Z,72.87
2018-03-26T11:24:39.435Z,83.60
2018-03-26T11:27:07.692Z,75.87
2018-03-26T11:29:35.253Z,79.22
2018-03-26T11:32:02.826Z,73.90
2018-03-26T11:34:30.315Z,80.62
2018-03-26T11:36:57.845Z,83.28
2018-03-26T11:39:25.333Z,69.15
2018-03-26T11:41:52.793Z,73.68
2018-03-26T11:44:20.255Z,69.82
2018-03-26T11:46:47.737Z,69.70
2018-03-26T11:49:15.320Z,58.87
2018-03-26T11:51:43.580Z,50.17
2018-03-26T11:54:11.032Z,45.83
2018-03-26T11:56:38.526Z,53.67
2018-03-26T11:59:06.798Z,49.65
2018-03-26T12:01:35.049Z,46.25
2018-03-26T12:04:02.511Z,58.53
2018-03-26T12:06:30.074Z,55.35
2018-03-26T12:08:57.604Z,56.22
2018-03-26T12:11:25.791Z,55.47
2018-03-26T12:13:53.275Z,56.97
2018-03-26T12:16:21.516Z,57.08
2018-03-26T12:18:48.998Z,61.33
2018-03-26T12:21:16.479Z,71.80
2018-03-26T12:23:56.631Z,80.55
2018-03-26T12:26:24.873Z,73.05
2018-03-26T12:29:04.304Z,75.53
2018-03-26T12:31:31.771Z,78.30
2018-03-26T12:34:11.187Z,81.78
2018-03-26T12:36:38.685Z,69.25
2018-03-26T12:39:06.930Z,85.43
2018-03-26T12:41:34.398Z,79.55
2018-03-26T12:44:01.862Z,75.72
2018-03-26T12:46:36.246Z,69.20
2018-03-26T12:49:03.715Z,86.93
2018-03-26T12:51:43.291Z,72.20
2018-03-26T12:54:11.524Z,77.57
2018-03-26T12:56:39.023Z,63.90
2018-03-26T12:59:07.260Z,69.32
2018-03-26T13:01:46.776Z,61.83
2018-03-26T13:04:14.406Z,64.35
2018-03-26T13:06:42.679Z,61.15
2018-03-26T13:09:10.923Z,58.87
2018-03-26T13:11:38.383Z,58.97
2018-03-26T13:14:05.943Z,65.62
2018-03-26T13:16:34.178Z,57.95
2018-03-26T13:19:01.659Z,57.08
2018-03-26T13:21:29.134Z,52.03
2018-03-26T13:23:56.647Z,49.10
2018-03-26T13:26:24.114Z,43.85
2018-03-26T13:28:51.586Z,39.33
2018-03-26T13:31:19.060Z,40.97
2018-03-26T13:33:46.566Z,35.75
2018-03-26T13:36:14.084Z,38.15
2018-03-26T13:38:41.564Z,37.67
2018-03-26T13:41:09.796Z,37.45
2018-03-26T13:43:37.256Z,40.33
2018-03-26T13:46:04.726Z,34.63
2018-03-26T13:48:32.301Z,34.00
2018-03-26T13:51:00.574Z,38.55
2018-03-26T13:53:28.814Z,32.15
2018-03-26T13:55:56.294Z,28.33
2018-03-26T13:58:23.826Z,28.20
2018-03-26T14:00:51.312Z,26.87
2018-03-26T14:03:18.793Z,28.08
2018-03-26T14:05:47.030Z,25.92
2018-03-26T14:08:26.380Z,29.33
2018-03-26T14:11:05.832Z,27.17
2018-03-26T14:16:45.760Z,24.60
2018-03-26T14:19:13.253Z,22.55
2018-03-26T14:21:41.508Z,29.08
2018-03-26T14:24:09.086Z,25.10
2018-03-26T14:26:37.320Z,24.87
2018-03-26T14:29:04.794Z,24.70
2018-03-26T14:31:32.290Z,28.00
2018-03-26T14:33:59.794Z,24.35
2018-03-26T14:36:27.279Z,25.70
2018-03-26T14:38:54.766Z,20.95
2018-03-26T14:41:22.245Z,24.25
2018-03-26T14:43:49.738Z,25.27
2018-03-26T14:46:17.225Z,25.62
2018-03-26T14:48:45.474Z,17.92
2018-03-26T14:51:12.953Z,25.02
2018-03-26T14:53:41.318Z,17.80
2018-03-26T14:56:08.784Z,21.02
2018-03-26T14:58:37.050Z,21.75
2018-03-26T15:01:05.300Z,18.23
2018-03-26T15:03:32.806Z,20.67
2018-03-26T15:06:00.279Z,24.95
2018-03-26T15:08:27.877Z,25.88
2018-03-26T15:10:55.375Z,19.55
2018-03-26T15:13:23.612Z,18.50
2018-03-26T15:15:51.087Z,18.60
2018-03-26T15:18:18.574Z,17.20
2018-03-26T15:20:46.105Z,16.98
2018-03-26T15:23:14.368Z,15.95
2018-03-26T15:25:41.855Z,19.23
2018-03-26T15:28:09.393Z,14.00
2018-03-26T15:30:37.654Z,11.97
2018-03-26T15:33:05.220Z,10.40
2018-03-26T15:35:32.708Z,12.70
2018-03-26T15:38:00.961Z,15.77
2018-03-26T15:40:28.440Z,13.40
2018-03-26T15:42:56.678Z,14.77
2018-03-26T15:45:24.259Z,13.57
2018-03-26T15:47:51.739Z,13.90
2018-03-26T15:50:18.722Z,12.20
2018-03-26T15:52:46.219Z,11.53
2018-03-26T15:55:14.467Z,10.67
2018-03-26T15:57:41.950Z,15.23
2018-03-26T16:00:09.436Z,13.47
2018-03-26T16:05:41.809Z,11.05
2018-03-26T16:08:10.052Z,12.30
2018-03-26T16:10:37.683Z,10.27
2018-03-26T16:13:05.173Z,11.97
2018-03-26T16:15:32.637Z,10.23
2018-03-26T16:18:00.198Z,12.67
2018-03-26T16:20:28.473Z,10.10
2018-03-26T16:22:56.020Z,13.90
2018-03-26T16:25:23.486Z,12.27
2018-03-26T16:27:50.947Z,9.73
2018-03-26T16:30:18.423Z,11.47
2018-03-26T16:32:46.685Z,10.73
2018-03-26T16:35:14.143Z,8.53
2018-03-26T16:37:42.792Z,8.90
2018-03-26T16:40:10.286Z,11.97
2018-03-26T16:42:44.398Z,7.93
2018-03-26T16:45:12.643Z,11.53
2018-03-26T16:47:40.115Z,11.27
2018-03-26T16:50:07.717Z,17.43
2018-03-26T16:52:35.234Z,11.80
2018-03-26T16:55:02.720Z,12.83
2018-03-26T16:57:30.260Z,10.13
2018-03-26T16:59:57.746Z,11.93
2018-03-26T17:02:25.322Z,19.52
2018-03-26T17:04:52.814Z,13.23
2018-03-26T17:07:20.273Z,12.05
2018-03-26T17:09:47.724Z,12.37
2018-03-26T17:12:15.184Z,12.93
2018-03-26T17:14:42.655Z,19.80
2018-03-26T17:17:10.125Z,13.70
2018-03-26T17:19:38.392Z,11.10
2018-03-26T17:22:05.987Z,16.87
2018-03-26T17:24:34.212Z,12.45
2018-03-26T17:27:01.685Z,12.30
2018-03-26T17:29:29.232Z,15.45
2018-03-26T17:31:56.716Z,12.55
2018-03-26T17:34:25.023Z,16.58
2018-03-26T17:36:52.491Z,15.07
2018-03-26T17:39:19.987Z,16.58
2018-03-26T17:41:47.460Z,13.77
2018-03-26T17:44:15.709Z,14.15
2018-03-26T17:46:43.207Z,10.55
2018-03-26T17:49:10.725Z,14.77
2018-03-26T17:51:39.695Z,12.60
2018-03-26T17:54:07.179Z,10.85
2018-03-26T17:56:34.662Z,12.40
2018-03-26T17:59:02.907Z,11.98
2018-03-26T18:01:31.130Z,18.45
2018-03-26T18:03:58.640Z,17.92
2018-03-26T18:06:26.198Z,7.82
2018-03-26T18:08:53.689Z,12.40
2018-03-26T18:11:21.934Z,18.92
2018-03-26T18:13:49.441Z,9.95
2018-03-26T18:16:16.896Z,14.80
2018-03-26T18:18:44.353Z,9.63
2018-03-26T18:21:11.930Z,13.27
2018-03-26T18:23:39.325Z,15.02
2018-03-26T18:26:06.876Z,13.38
2018-03-26T18:28:34.329Z,14.13
2018-03-26T18:31:01.891Z,14.32
2018-03-26T18:33:29.458Z,18.92
2018-03-26T18:35:56.923Z,13.75
2018-03-26T18:38:25.185Z,12.43
2018-03-26T18:40:52.650Z,12.95
2018-03-26T18:43:20.112Z,12.00
2018-03-26T18:45:48.358Z,16.95
2018-03-26T18:48:15.845Z,13.73
2018-03-26T18:50:44.069Z,9.68
2018-03-26T18:53:11.554Z,12.50
2018-03-26T18:55:39.022Z,14.68
2018-03-26T18:58:06.503Z,15.85
2018-03-26T19:00:34.767Z,15.15
2018-03-26T19:03:03.026Z,17.05
2018-03-26T19:05:30.477Z,11.80
2018-03-26T19:07:58.042Z,13.77
2018-03-26T19:10:25.592Z,13.88
2018-03-26T19:12:53.165Z,16.52
2018-03-26T19:15:20.653Z,28.05
2018-03-26T19:17:48.227Z,14.52
2018-03-26T19:20:15.747Z,12.98
2018-03-26T19:22:44.012Z,12.55
2018-03-26T19:25:11.574Z,11.43
2018-03-26T19:27:39.127Z,15.07
2018-03-26T19:30:06.599Z,13.43
2018-03-26T19:32:34.850Z,14.02
2018-03-26T19:35:02.308Z,11.63
2018-03-26T19:37:29.763Z,14.32
2018-03-26T19:39:57.380Z,12.70
2018-03-26T19:42:24.791Z,15.50
2018-03-26T19:44:52.344Z,13.50
2018-03-26T19:47:19.905Z,14.00
2018-03-26T19:49:47.364Z,19.70
2018-03-26T19:52:14.862Z,11.15
2018-03-26T19:54:42.333Z,16.95
2018-03-26T19:57:09.831Z,11.35
2018-03-26T19:59:37.329Z,15.98
2018-03-26T20:02:04.784Z,18.27
2018-03-26T20:04:32.244Z,19.42
2018-03-26T20:06:59.727Z,18.05
2018-03-26T20:09:27.188Z,14.50
2018-03-26T20:11:54.677Z,14.95
2018-03-26T20:14:22.249Z,14.23
2018-03-26T20:16:49.788Z,30.33
2018-03-26T20:19:18.075Z,35.20
2018-03-26T20:21:45.637Z,26.95
2018-03-26T20:24:13.118Z,30.27
2018-03-26T20:26:40.688Z,25.48
2018-03-26T20:29:08.175Z,15.93
2018-03-26T20:31:35.644Z,15.98
2018-03-26T20:34:03.225Z,20.05
2018-03-26T20:36:31.478Z,16.70
2018-03-26T20:38:58.979Z,20.67
2018-03-26T20:41:27.246Z,16.52
2018-03-26T20:43:55.584Z,20.73
2018-03-26T20:46:23.112Z,23.48
2018-03-26T20:48:50.613Z,20.23
2018-03-26T20:51:18.196Z,17.40
2018-03-26T20:53:46.453Z,16.10
2018-03-26T20:56:13.922Z,11.35
2018-03-26T20:58:42.148Z,17.33
2018-03-26T21:01:09.616Z,18.62
2018-03-26T21:03:37.116Z,11.90
2018-03-26T21:06:05.364Z,15.32
2018-03-26T21:08:32.828Z,15.57
2018-03-26T21:11:00.310Z,16.80
2018-03-26T21:13:28.581Z,15.60
2018-03-26T21:15:56.859Z,19.30
2018-03-26T21:18:25.119Z,20.02
2018-03-26T21:20:52.614Z,16.20
2018-03-26T21:23:20.228Z,14.82
2018-03-26T21:25:48.500Z,17.15
2018-03-26T21:28:16.068Z,17.48
2018-03-26T21:30:43.578Z,17.75
2018-03-26T21:33:11.051Z,15.73
2018-03-26T21:35:38.516Z,15.30
2018-03-26T21:38:06.042Z,16.40
2018-03-26T21:40:33.488Z,18.58
2018-03-26T21:43:00.958Z,14.98
2018-03-26T21:45:28.474Z,21.17
2018-03-26T21:47:56.020Z,17.20
2018-03-26T21:50:23.487Z,15.30
2018-03-26T21:52:51.724Z,14.52
2018-03-26T21:55:19.211Z,16.37
2018-03-26T21:57:46.693Z,18.98
2018-03-26T22:00:18.529Z,16.85
2018-03-26T22:02:46.005Z,25.17
2018-03-26T22:05:14.266Z,14.18
2018-03-26T22:07:42.526Z,16.70
2018-03-26T22:10:10.113Z,23.73
2018-03-26T22:12:38.347Z,19.58
2018-03-26T22:15:05.810Z,19.25
2018-03-26T22:17:33.326Z,13.70
2018-03-26T22:20:00.798Z,16.65
2018-03-26T22:22:28.292Z,15.65
2018-03-26T22:24:55.767Z,18.83
2018-03-26T22:27:23.996Z,18.40
2018-03-26T22:29:51.496Z,16.58
2018-03-26T22:32:18.953Z,20.15
2018-03-26T22:34:47.223Z,16.05
2018-03-26T22:37:14.678Z,18.62
2018-03-26T22:39:42.242Z,20.45
2018-03-26T22:42:09.704Z,17.95
2018-03-26T22:44:38.060Z,26.67
2018-03-26T22:47:05.529Z,14.30
2018-03-26T22:49:32.997Z,15.93
2018-03-26T22:52:01.311Z,14.18
2018-03-26T22:54:28.766Z,19.20
2018-03-26T22:56:56.254Z,17.58
2018-03-26T22:59:23.733Z,15.20
2018-03-26T23:01:51.285Z,15.70
2018-03-26T23:04:19.518Z,14.23
2018-03-26T23:06:47.028Z,16.42
2018-03-26T23:09:14.489Z,16.40
2018-03-26T23:11:42.763Z,15.38
2018-03-26T23:14:10.233Z,13.10
2018-03-26T23:16:38.488Z,9.45
2018-03-26T23:19:06.132Z,14.87
2018-03-26T23:21:33.596Z,13.00
2018-03-26T23:24:02.565Z,12.30
2018-03-26T23:26:30.061Z,13.15
2018-03-26T23:28:57.519Z,12.23
2018-03-26T23:31:25.017Z,11.63
2018-03-26T23:33:52.616Z,11.52
2018-03-26T23:36:20.197Z,12.57
2018-03-26T23:38:48.440Z,13.85
2018-03-26T23:41:15.919Z,12.18
2018-03-26T23:43:44.323Z,9.00
2018-03-26T23:46:11.886Z,11.95
2018-03-26T23:48:39.430Z,12.35
2018-03-26T23:51:07.661Z,10.73
2018-03-26T23:53:35.161Z,8.02
2018-03-26T23:56:03.376Z,11.65
2018-03-26T23:58:30.889Z,10.45
